sensor_id;sensor_type;location;lat;lon;timestamp;pressure;altitude;pressure_sealevel;temperature;humidity
41230;BME280;26964;50.428;19.218;2023-05-20T00:00:02;1028.6;;;10.6;77.2
41230;BME280;26964;50.428;19.218;2023-05-20T00:01:02;1028.7;;;10.6;77.3
41230;BME280;26964;50.428;19.218;2023-05-20T00:02:02;1028.7;;;10.6;77.3
41230;BME280;26964;50.428;19.218;2023-05-20T00:03:01;1028.6;;;10.6;77.3
41230;BME280;26964;50.428;19.218;2023-05-20T00:04:02;1028.6;;;10.5;77.3
41230;BME280;26964;50.428;19.218;2023-05-20T00:05:02;1028.6;;;10.6;77.3
41230;BME280;26964;50.428;19.218;2023-05-20T00:06:02;1028.6;;;10.6;77.3
41230;BME280;26964;50.428;19.218;2023-05-20T00:07:01;1028.6;;;10.6;77.4
41230;BME280;26964;50.428;19.218;2023-05-20T00:08:02;1028.5;;;10.6;77.4
41230;BME280;26964;50.428;19.218;2023-05-20T00:09:02;1028.6;;;10.6;77.4
41230;BME280;26964;50.428;19.218;2023-05-20T00:10:03;1028.6;;;10.6;77.4
41230;BME280;26964;50.428;19.218;2023-05-20T00:11:02;1028.6;;;10.6;77.4
41230;BME280;26964;50.428;19.218;2023-05-20T00:12:02;1028.6;;;10.6;77.4
41230;BME280;26964;50.428;19.218;2023-05-20T00:13:02;1028.6;;;10.6;77.4
41230;BME280;26964;50.428;19.218;2023-05-20T00:14:01;1028.5;;;10.6;77.4
41230;BME280;26964;50.428;19.218;2023-05-20T00:15:02;1028.6;;;10.6;77.4
41230;BME280;26964;50.428;19.218;2023-05-20T00:16:02;1028.5;;;10.6;77.4
41230;BME280;26964;50.428;19.218;2023-05-20T00:17:01;1028.6;;;10.6;77.4
41230;BME280;26964;50.428;19.218;2023-05-20T00:18:02;1028.5;;;10.6;77.4
41230;BME280;26964;50.428;19.218;2023-05-20T00:19:02;1028.6;;;10.6;77.3
41230;BME280;26964;50.428;19.218;2023-05-20T00:20:02;1028.4;;;10.6;77.4
41230;BME280;26964;50.428;19.218;2023-05-20T00:21:02;1028.6;;;10.6;77.4
41230;BME280;26964;50.428;19.218;2023-05-20T00:22:01;1028.6;;;10.6;77.4
41230;BME280;26964;50.428;19.218;2023-05-20T00:23:02;1028.5;;;10.6;77.4
41230;BME280;26964;50.428;19.218;2023-05-20T00:24:02;1028.7;;;10.6;77.4
41230;BME280;26964;50.428;19.218;2023-05-20T00:25:01;1028.6;;;10.6;77.4
41230;BME280;26964;50.428;19.218;2023-05-20T00:26:02;1028.6;;;10.6;77.4
41230;BME280;26964;50.428;19.218;2023-05-20T00:27:02;1028.5;;;10.6;77.4
41230;BME280;26964;50.428;19.218;2023-05-20T00:28:02;1028.6;;;10.6;77.4
41230;BME280;26964;50.428;19.218;2023-05-20T00:29:02;1028.5;;;10.6;77.4
41230;BME280;26964;50.428;19.218;2023-05-20T00:30:02;1028.5;;;10.6;77.4
41230;BME280;26964;50.428;19.218;2023-05-20T00:31:02;1028.5;;;10.6;77.4
41230;BME280;26964;50.428;19.218;2023-05-20T00:32:02;1028.5;;;10.6;77.4
41230;BME280;26964;50.428;19.218;2023-05-20T00:33:01;1028.5;;;10.6;77.4
41230;BME280;26964;50.428;19.218;2023-05-20T00:34:02;1028.5;;;10.6;77.4
41230;BME280;26964;50.428;19.218;2023-05-20T00:35:02;1028.5;;;10.6;77.4
41230;BME280;26964;50.428;19.218;2023-05-20T00:36:03;1028.4;;;10.6;77.4
41230;BME280;26964;50.428;19.218;2023-05-20T00:37:02;1028.4;;;10.6;77.4
41230;BME280;26964;50.428;19.218;2023-05-20T00:38:02;1028.4;;;10.6;77.4
41230;BME280;26964;50.428;19.218;2023-05-20T00:39:02;1028.3;;;10.6;77.4
41230;BME280;26964;50.428;19.218;2023-05-20T00:40:02;1028.4;;;10.6;77.5
41230;BME280;26964;50.428;19.218;2023-05-20T00:41:02;1028.4;;;10.6;77.4
41230;BME280;26964;50.428;19.218;2023-05-20T00:42:01;1028.4;;;10.6;77.4
41230;BME280;26964;50.428;19.218;2023-05-20T00:43:02;1028.4;;;10.6;77.4
41230;BME280;26964;50.428;19.218;2023-05-20T00:44:02;1028.5;;;10.5;77.4
41230;BME280;26964;50.428;19.218;2023-05-20T00:45:01;1028.4;;;10.5;77.4
41230;BME280;26964;50.428;19.218;2023-05-20T00:46:02;1028.4;;;10.5;77.5
41230;BME280;26964;50.428;19.218;2023-05-20T00:47:02;1028.4;;;10.5;77.5
41230;BME280;26964;50.428;19.218;2023-05-20T00:48:01;1028.3;;;10.5;77.5
41230;BME280;26964;50.428;19.218;2023-05-20T00:49:01;1028.4;;;10.5;77.5
41230;BME280;26964;50.428;19.218;2023-05-20T00:50:02;1028.4;;;10.5;77.5
41230;BME280;26964;50.428;19.218;2023-05-20T00:51:02;1028.4;;;10.6;77.6
41230;BME280;26964;50.428;19.218;2023-05-20T00:52:01;1028.3;;;10.6;77.6
41230;BME280;26964;50.428;19.218;2023-05-20T00:53:02;1028.3;;;10.5;77.6
41230;BME280;26964;50.428;19.218;2023-05-20T00:54:01;1028.4;;;10.5;77.5
41230;BME280;26964;50.428;19.218;2023-05-20T00:55:02;1028.3;;;10.5;77.5
41230;BME280;26964;50.428;19.218;2023-05-20T00:56:02;1028.4;;;10.5;77.5
41230;BME280;26964;50.428;19.218;2023-05-20T00:57:03;1028.4;;;10.5;77.5
41230;BME280;26964;50.428;19.218;2023-05-20T00:58:02;1028.3;;;10.5;77.5
41230;BME280;26964;50.428;19.218;2023-05-20T00:59:02;1028.4;;;10.5;77.5
41230;BME280;26964;50.428;19.218;2023-05-20T01:00:02;1028.3;;;10.5;77.5
41230;BME280;26964;50.428;19.218;2023-05-20T01:01:01;1028.4;;;10.5;77.5
41230;BME280;26964;50.428;19.218;2023-05-20T01:02:02;1028.4;;;10.5;77.6
41230;BME280;26964;50.428;19.218;2023-05-20T01:03:02;1028.3;;;10.5;77.6
41230;BME280;26964;50.428;19.218;2023-05-20T01:04:01;1028.4;;;10.5;77.7
41230;BME280;26964;50.428;19.218;2023-05-20T01:05:02;1028.3;;;10.5;77.6
41230;BME280;26964;50.428;19.218;2023-05-20T01:06:02;1028.3;;;10.5;77.7
41230;BME280;26964;50.428;19.218;2023-05-20T01:07:03;1028.3;;;10.5;77.7
41230;BME280;26964;50.428;19.218;2023-05-20T01:08:01;1028.3;;;10.5;77.7
41230;BME280;26964;50.428;19.218;2023-05-20T01:09:01;1028.3;;;10.5;77.7
41230;BME280;26964;50.428;19.218;2023-05-20T01:10:02;1028.2;;;10.5;77.7
41230;BME280;26964;50.428;19.218;2023-05-20T01:11:13;1028.3;;;10.5;77.7
41230;BME280;26964;50.428;19.218;2023-05-20T01:12:06;1028.2;;;10.5;77.7
41230;BME280;26964;50.428;19.218;2023-05-20T01:13:07;1028.3;;;10.5;77.7
41230;BME280;26964;50.428;19.218;2023-05-20T01:14:05;1028.3;;;10.5;77.7
41230;BME280;26964;50.428;19.218;2023-05-20T01:15:06;1028.3;;;10.5;77.7
41230;BME280;26964;50.428;19.218;2023-05-20T01:16:02;1028.3;;;10.5;77.7
41230;BME280;26964;50.428;19.218;2023-05-20T01:17:04;1028.3;;;10.5;77.7
41230;BME280;26964;50.428;19.218;2023-05-20T01:18:02;1028.3;;;10.5;77.7
41230;BME280;26964;50.428;19.218;2023-05-20T01:19:02;1028.2;;;10.5;77.7
41230;BME280;26964;50.428;19.218;2023-05-20T01:20:04;1028.3;;;10.5;77.7
41230;BME280;26964;50.428;19.218;2023-05-20T01:21:02;1028.3;;;10.5;77.6
41230;BME280;26964;50.428;19.218;2023-05-20T01:22:07;1028.4;;;10.5;77.6
41230;BME280;26964;50.428;19.218;2023-05-20T01:23:01;1028.4;;;10.5;77.6
41230;BME280;26964;50.428;19.218;2023-05-20T01:24:01;1028.3;;;10.5;77.6
41230;BME280;26964;50.428;19.218;2023-05-20T01:25:02;1028.3;;;10.5;77.6
41230;BME280;26964;50.428;19.218;2023-05-20T01:26:02;1028.3;;;10.5;77.6
41230;BME280;26964;50.428;19.218;2023-05-20T01:27:01;1028.3;;;10.5;77.6
41230;BME280;26964;50.428;19.218;2023-05-20T01:28:02;1028.3;;;10.5;77.6
41230;BME280;26964;50.428;19.218;2023-05-20T01:29:02;1028.3;;;10.5;77.6
41230;BME280;26964;50.428;19.218;2023-05-20T01:30:02;1028.4;;;10.5;77.7
41230;BME280;26964;50.428;19.218;2023-05-20T01:31:05;1028.4;;;10.5;77.6
41230;BME280;26964;50.428;19.218;2023-05-20T01:32:04;1028.4;;;10.5;77.6
41230;BME280;26964;50.428;19.218;2023-05-20T01:33:06;1028.4;;;10.5;77.7
41230;BME280;26964;50.428;19.218;2023-05-20T01:34:06;1028.3;;;10.5;77.7
41230;BME280;26964;50.428;19.218;2023-05-20T01:35:03;1028.4;;;10.5;77.7
41230;BME280;26964;50.428;19.218;2023-05-20T01:36:02;1028.4;;;10.5;77.7
41230;BME280;26964;50.428;19.218;2023-05-20T01:37:03;1028.3;;;10.5;77.7
41230;BME280;26964;50.428;19.218;2023-05-20T01:38:04;1028.4;;;10.5;77.7
41230;BME280;26964;50.428;19.218;2023-05-20T01:39:01;1028.4;;;10.5;77.7
41230;BME280;26964;50.428;19.218;2023-05-20T01:40:03;1028.4;;;10.5;77.7
41230;BME280;26964;50.428;19.218;2023-05-20T01:41:03;1028.3;;;10.5;77.7
41230;BME280;26964;50.428;19.218;2023-05-20T01:42:04;1028.3;;;10.5;77.8
41230;BME280;26964;50.428;19.218;2023-05-20T01:43:05;1028.2;;;10.5;77.8
41230;BME280;26964;50.428;19.218;2023-05-20T01:44:01;1028.3;;;10.5;77.8
41230;BME280;26964;50.428;19.218;2023-05-20T01:45:02;1028.3;;;10.5;77.7
41230;BME280;26964;50.428;19.218;2023-05-20T01:46:05;1028.3;;;10.5;77.8
41230;BME280;26964;50.428;19.218;2023-05-20T01:47:02;1028.3;;;10.5;77.7
41230;BME280;26964;50.428;19.218;2023-05-20T01:48:04;1028.2;;;10.5;77.8
41230;BME280;26964;50.428;19.218;2023-05-20T01:49:02;1028.2;;;10.5;77.8
41230;BME280;26964;50.428;19.218;2023-05-20T01:50:02;1028.1;;;10.5;77.8
41230;BME280;26964;50.428;19.218;2023-05-20T01:51:02;1028.2;;;10.5;77.7
41230;BME280;26964;50.428;19.218;2023-05-20T01:52:01;1028.2;;;10.5;77.8
41230;BME280;26964;50.428;19.218;2023-05-20T01:53:01;1028.1;;;10.5;77.8
41230;BME280;26964;50.428;19.218;2023-05-20T01:54:02;1028.3;;;10.5;77.8
41230;BME280;26964;50.428;19.218;2023-05-20T01:55:01;1028.2;;;10.5;77.8
41230;BME280;26964;50.428;19.218;2023-05-20T01:56:03;1028.2;;;10.5;77.8
41230;BME280;26964;50.428;19.218;2023-05-20T01:57:01;1028.3;;;10.5;77.8
41230;BME280;26964;50.428;19.218;2023-05-20T01:58:01;1028.2;;;10.5;77.8
41230;BME280;26964;50.428;19.218;2023-05-20T01:59:01;1028.2;;;10.5;77.8
41230;BME280;26964;50.428;19.218;2023-05-20T02:00:02;1028.2;;;10.5;77.8
41230;BME280;26964;50.428;19.218;2023-05-20T02:01:02;1028.1;;;10.5;77.8
41230;BME280;26964;50.428;19.218;2023-05-20T02:02:01;1028.1;;;10.5;77.8
41230;BME280;26964;50.428;19.218;2023-05-20T02:03:01;1028.3;;;10.5;77.8
41230;BME280;26964;50.428;19.218;2023-05-20T02:04:01;1028.2;;;10.5;77.8
41230;BME280;26964;50.428;19.218;2023-05-20T02:05:01;1028.2;;;10.5;77.8
41230;BME280;26964;50.428;19.218;2023-05-20T02:06:02;1028.2;;;10.5;77.9
41230;BME280;26964;50.428;19.218;2023-05-20T02:07:01;1028.2;;;10.5;77.9
41230;BME280;26964;50.428;19.218;2023-05-20T02:08:02;1028.2;;;10.5;77.8
41230;BME280;26964;50.428;19.218;2023-05-20T02:09:01;1028.2;;;10.5;77.9
41230;BME280;26964;50.428;19.218;2023-05-20T02:10:01;1028.3;;;10.5;77.9
41230;BME280;26964;50.428;19.218;2023-05-20T02:11:02;1028.3;;;10.5;77.9
41230;BME280;26964;50.428;19.218;2023-05-20T02:12:02;1028.2;;;10.5;77.9
41230;BME280;26964;50.428;19.218;2023-05-20T02:13:01;1028.3;;;10.5;77.9
41230;BME280;26964;50.428;19.218;2023-05-20T02:14:02;1028.2;;;10.5;77.9
41230;BME280;26964;50.428;19.218;2023-05-20T02:15:01;1028.2;;;10.5;77.9
41230;BME280;26964;50.428;19.218;2023-05-20T02:16:02;1028.3;;;10.6;77.9
41230;BME280;26964;50.428;19.218;2023-05-20T02:17:02;1028.3;;;10.6;78.0
41230;BME280;26964;50.428;19.218;2023-05-20T02:18:01;1028.3;;;10.6;77.9
41230;BME280;26964;50.428;19.218;2023-05-20T02:19:01;1028.3;;;10.6;77.9
41230;BME280;26964;50.428;19.218;2023-05-20T02:20:01;1028.3;;;10.6;77.9
41230;BME280;26964;50.428;19.218;2023-05-20T02:21:02;1028.2;;;10.5;78.0
41230;BME280;26964;50.428;19.218;2023-05-20T02:22:01;1028.3;;;10.6;78.0
41230;BME280;26964;50.428;19.218;2023-05-20T02:23:02;1028.3;;;10.6;78.0
41230;BME280;26964;50.428;19.218;2023-05-20T02:24:02;1028.3;;;10.6;78.0
41230;BME280;26964;50.428;19.218;2023-05-20T02:25:01;1028.3;;;10.6;78.0
41230;BME280;26964;50.428;19.218;2023-05-20T02:26:01;1028.2;;;10.6;78.0
41230;BME280;26964;50.428;19.218;2023-05-20T02:27:01;1028.3;;;10.6;78.0
41230;BME280;26964;50.428;19.218;2023-05-20T02:28:01;1028.3;;;10.6;78.0
41230;BME280;26964;50.428;19.218;2023-05-20T02:29:01;1028.3;;;10.6;78.0
41230;BME280;26964;50.428;19.218;2023-05-20T02:30:02;1028.3;;;10.6;78.0
41230;BME280;26964;50.428;19.218;2023-05-20T02:31:02;1028.3;;;10.6;78.0
41230;BME280;26964;50.428;19.218;2023-05-20T02:32:02;1028.3;;;10.6;78.0
41230;BME280;26964;50.428;19.218;2023-05-20T02:33:02;1028.4;;;10.6;78.0
41230;BME280;26964;50.428;19.218;2023-05-20T02:34:02;1028.3;;;10.6;78.0
41230;BME280;26964;50.428;19.218;2023-05-20T02:35:02;1028.3;;;10.6;78.0
41230;BME280;26964;50.428;19.218;2023-05-20T02:36:02;1028.4;;;10.6;78.1
41230;BME280;26964;50.428;19.218;2023-05-20T02:37:02;1028.3;;;10.6;78.1
41230;BME280;26964;50.428;19.218;2023-05-20T02:38:01;1028.3;;;10.6;78.1
41230;BME280;26964;50.428;19.218;2023-05-20T02:39:02;1028.3;;;10.6;78.1
41230;BME280;26964;50.428;19.218;2023-05-20T02:40:02;1028.3;;;10.6;78.1
41230;BME280;26964;50.428;19.218;2023-05-20T02:41:01;1028.3;;;10.6;78.1
41230;BME280;26964;50.428;19.218;2023-05-20T02:42:01;1028.3;;;10.6;78.1
41230;BME280;26964;50.428;19.218;2023-05-20T02:43:01;1028.2;;;10.6;78.1
41230;BME280;26964;50.428;19.218;2023-05-20T02:44:02;1028.4;;;10.6;78.1
41230;BME280;26964;50.428;19.218;2023-05-20T02:45:02;1028.3;;;10.6;78.1
41230;BME280;26964;50.428;19.218;2023-05-20T02:46:02;1028.3;;;10.6;78.1
41230;BME280;26964;50.428;19.218;2023-05-20T02:47:01;1028.3;;;10.6;78.1
41230;BME280;26964;50.428;19.218;2023-05-20T02:48:01;1028.4;;;10.7;78.1
41230;BME280;26964;50.428;19.218;2023-05-20T02:49:01;1028.3;;;10.6;78.1
41230;BME280;26964;50.428;19.218;2023-05-20T02:50:01;1028.4;;;10.7;78.1
41230;BME280;26964;50.428;19.218;2023-05-20T02:51:01;1028.3;;;10.6;78.2
41230;BME280;26964;50.428;19.218;2023-05-20T02:52:01;1028.3;;;10.7;78.2
41230;BME280;26964;50.428;19.218;2023-05-20T02:53:01;1028.4;;;10.7;78.2
41230;BME280;26964;50.428;19.218;2023-05-20T02:54:01;1028.3;;;10.7;78.2
41230;BME280;26964;50.428;19.218;2023-05-20T02:55:02;1028.4;;;10.7;78.2
41230;BME280;26964;50.428;19.218;2023-05-20T02:56:02;1028.4;;;10.7;78.2
41230;BME280;26964;50.428;19.218;2023-05-20T02:57:01;1028.3;;;10.7;78.2
41230;BME280;26964;50.428;19.218;2023-05-20T02:58:01;1028.4;;;10.7;78.2
41230;BME280;26964;50.428;19.218;2023-05-20T02:59:02;1028.3;;;10.7;78.2
41230;BME280;26964;50.428;19.218;2023-05-20T03:00:02;1028.4;;;10.7;78.2
41230;BME280;26964;50.428;19.218;2023-05-20T03:01:01;1028.4;;;10.7;78.2
41230;BME280;26964;50.428;19.218;2023-05-20T03:02:01;1028.4;;;10.7;78.2
41230;BME280;26964;50.428;19.218;2023-05-20T03:03:01;1028.4;;;10.7;78.2
41230;BME280;26964;50.428;19.218;2023-05-20T03:04:02;1028.4;;;10.7;78.2
41230;BME280;26964;50.428;19.218;2023-05-20T03:05:01;1028.5;;;10.7;78.2
41230;BME280;26964;50.428;19.218;2023-05-20T03:06:01;1028.4;;;10.7;78.2
41230;BME280;26964;50.428;19.218;2023-05-20T03:07:02;1028.4;;;10.7;78.2
41230;BME280;26964;50.428;19.218;2023-05-20T03:08:05;1028.4;;;10.7;78.2
41230;BME280;26964;50.428;19.218;2023-05-20T03:09:02;1028.4;;;10.7;78.2
41230;BME280;26964;50.428;19.218;2023-05-20T03:10:01;1028.4;;;10.8;78.3
41230;BME280;26964;50.428;19.218;2023-05-20T03:11:01;1028.3;;;10.8;78.3
41230;BME280;26964;50.428;19.218;2023-05-20T03:12:01;1028.4;;;10.8;78.3
41230;BME280;26964;50.428;19.218;2023-05-20T03:13:03;1028.4;;;10.8;78.3
41230;BME280;26964;50.428;19.218;2023-05-20T03:14:01;1028.4;;;10.8;78.3
41230;BME280;26964;50.428;19.218;2023-05-20T03:15:01;1028.4;;;10.8;78.3
41230;BME280;26964;50.428;19.218;2023-05-20T03:16:01;1028.4;;;10.8;78.3
41230;BME280;26964;50.428;19.218;2023-05-20T03:17:02;1028.5;;;10.8;78.3
41230;BME280;26964;50.428;19.218;2023-05-20T03:18:02;1028.4;;;10.8;78.3
41230;BME280;26964;50.428;19.218;2023-05-20T03:19:02;1028.4;;;10.8;78.3
41230;BME280;26964;50.428;19.218;2023-05-20T03:20:01;1028.4;;;10.8;78.3
41230;BME280;26964;50.428;19.218;2023-05-20T03:21:01;1028.5;;;10.8;78.3
41230;BME280;26964;50.428;19.218;2023-05-20T03:22:02;1028.4;;;10.8;78.3
41230;BME280;26964;50.428;19.218;2023-05-20T03:23:01;1028.4;;;10.8;78.3
41230;BME280;26964;50.428;19.218;2023-05-20T03:24:02;1028.4;;;10.8;78.3
41230;BME280;26964;50.428;19.218;2023-05-20T03:25:01;1028.3;;;10.8;78.3
41230;BME280;26964;50.428;19.218;2023-05-20T03:26:02;1028.4;;;10.8;78.4
41230;BME280;26964;50.428;19.218;2023-05-20T03:27:01;1028.4;;;10.8;78.4
41230;BME280;26964;50.428;19.218;2023-05-20T03:28:01;1028.4;;;10.8;78.4
41230;BME280;26964;50.428;19.218;2023-05-20T03:29:03;1028.5;;;10.8;78.4
41230;BME280;26964;50.428;19.218;2023-05-20T03:30:02;1028.4;;;10.8;78.4
41230;BME280;26964;50.428;19.218;2023-05-20T03:31:02;1028.4;;;10.8;78.4
41230;BME280;26964;50.428;19.218;2023-05-20T03:32:01;1028.3;;;10.8;78.4
41230;BME280;26964;50.428;19.218;2023-05-20T03:33:01;1028.4;;;10.8;78.4
41230;BME280;26964;50.428;19.218;2023-05-20T03:34:02;1028.4;;;10.8;78.4
41230;BME280;26964;50.428;19.218;2023-05-20T03:35:01;1028.3;;;10.8;78.4
41230;BME280;26964;50.428;19.218;2023-05-20T03:36:01;1028.5;;;10.8;78.4
41230;BME280;26964;50.428;19.218;2023-05-20T03:37:01;1028.5;;;10.8;78.4
41230;BME280;26964;50.428;19.218;2023-05-20T03:38:02;1028.4;;;10.9;78.4
41230;BME280;26964;50.428;19.218;2023-05-20T03:39:02;1028.4;;;10.9;78.4
41230;BME280;26964;50.428;19.218;2023-05-20T03:40:02;1028.6;;;10.9;78.4
41230;BME280;26964;50.428;19.218;2023-05-20T03:41:02;1028.5;;;10.9;78.5
41230;BME280;26964;50.428;19.218;2023-05-20T03:42:02;1028.4;;;10.9;78.5
41230;BME280;26964;50.428;19.218;2023-05-20T03:43:02;1028.5;;;10.9;78.5
41230;BME280;26964;50.428;19.218;2023-05-20T03:44:01;1028.4;;;10.9;78.5
41230;BME280;26964;50.428;19.218;2023-05-20T03:45:01;1028.5;;;10.9;78.4
41230;BME280;26964;50.428;19.218;2023-05-20T03:46:02;1028.5;;;10.9;78.5
41230;BME280;26964;50.428;19.218;2023-05-20T03:47:02;1028.5;;;10.9;78.5
41230;BME280;26964;50.428;19.218;2023-05-20T03:48:01;1028.5;;;10.9;78.5
41230;BME280;26964;50.428;19.218;2023-05-20T03:49:01;1028.5;;;10.9;78.5
41230;BME280;26964;50.428;19.218;2023-05-20T03:50:01;1028.5;;;10.9;78.5
41230;BME280;26964;50.428;19.218;2023-05-20T03:51:01;1028.5;;;10.9;78.5
41230;BME280;26964;50.428;19.218;2023-05-20T03:52:02;1028.5;;;10.9;78.5
41230;BME280;26964;50.428;19.218;2023-05-20T03:53:02;1028.5;;;10.9;78.5
41230;BME280;26964;50.428;19.218;2023-05-20T03:54:01;1028.5;;;10.9;78.5
41230;BME280;26964;50.428;19.218;2023-05-20T03:55:01;1028.4;;;10.9;78.5
41230;BME280;26964;50.428;19.218;2023-05-20T03:56:01;1028.5;;;10.9;78.5
41230;BME280;26964;50.428;19.218;2023-05-20T03:57:02;1028.6;;;10.9;78.5
41230;BME280;26964;50.428;19.218;2023-05-20T03:58:01;1028.6;;;10.9;78.5
41230;BME280;26964;50.428;19.218;2023-05-20T03:59:01;1028.6;;;11.0;78.6
41230;BME280;26964;50.428;19.218;2023-05-20T04:00:01;1028.6;;;11.0;78.6
41230;BME280;26964;50.428;19.218;2023-05-20T04:01:01;1028.6;;;11.0;78.6
41230;BME280;26964;50.428;19.218;2023-05-20T04:02:02;1028.6;;;11.0;78.6
41230;BME280;26964;50.428;19.218;2023-05-20T04:03:02;1028.5;;;11.0;78.6
41230;BME280;26964;50.428;19.218;2023-05-20T04:04:02;1028.5;;;11.0;78.6
41230;BME280;26964;50.428;19.218;2023-05-20T04:05:01;1028.4;;;11.0;78.6
41230;BME280;26964;50.428;19.218;2023-05-20T04:06:01;1028.5;;;11.0;78.6
41230;BME280;26964;50.428;19.218;2023-05-20T04:07:02;1028.5;;;11.0;78.6
41230;BME280;26964;50.428;19.218;2023-05-20T04:08:02;1028.5;;;11.0;78.6
41230;BME280;26964;50.428;19.218;2023-05-20T04:09:01;1028.6;;;11.0;78.7
41230;BME280;26964;50.428;19.218;2023-05-20T04:10:01;1028.4;;;11.0;78.6
41230;BME280;26964;50.428;19.218;2023-05-20T04:11:01;1028.4;;;11.0;78.6
41230;BME280;26964;50.428;19.218;2023-05-20T04:12:01;1028.5;;;11.1;78.6
41230;BME280;26964;50.428;19.218;2023-05-20T04:13:02;1028.5;;;11.1;78.7
41230;BME280;26964;50.428;19.218;2023-05-20T04:14:01;1028.5;;;11.1;78.7
41230;BME280;26964;50.428;19.218;2023-05-20T04:15:02;1028.5;;;11.1;78.7
41230;BME280;26964;50.428;19.218;2023-05-20T04:16:01;1028.5;;;11.1;78.7
41230;BME280;26964;50.428;19.218;2023-05-20T04:17:02;1028.5;;;11.1;78.7
41230;BME280;26964;50.428;19.218;2023-05-20T04:18:01;1028.5;;;11.1;78.7
41230;BME280;26964;50.428;19.218;2023-05-20T04:19:02;1028.5;;;11.1;78.7
41230;BME280;26964;50.428;19.218;2023-05-20T04:20:01;1028.6;;;11.1;78.7
41230;BME280;26964;50.428;19.218;2023-05-20T04:21:01;1028.5;;;11.1;78.7
41230;BME280;26964;50.428;19.218;2023-05-20T04:22:02;1028.5;;;11.1;78.7
41230;BME280;26964;50.428;19.218;2023-05-20T04:23:02;1028.6;;;11.1;78.7
41230;BME280;26964;50.428;19.218;2023-05-20T04:24:02;1028.6;;;11.1;78.7
41230;BME280;26964;50.428;19.218;2023-05-20T04:25:01;1028.6;;;11.1;78.7
41230;BME280;26964;50.428;19.218;2023-05-20T04:26:02;1028.6;;;11.2;78.7
41230;BME280;26964;50.428;19.218;2023-05-20T04:27:02;1028.6;;;11.2;78.7
41230;BME280;26964;50.428;19.218;2023-05-20T04:28:01;1028.6;;;11.2;78.7
41230;BME280;26964;50.428;19.218;2023-05-20T04:29:01;1028.6;;;11.2;78.7
41230;BME280;26964;50.428;19.218;2023-05-20T04:30:01;1028.6;;;11.2;78.7
41230;BME280;26964;50.428;19.218;2023-05-20T04:31:02;1028.5;;;11.2;78.7
41230;BME280;26964;50.428;19.218;2023-05-20T04:32:01;1028.5;;;11.3;78.7
41230;BME280;26964;50.428;19.218;2023-05-20T04:33:01;1028.5;;;11.3;78.7
41230;BME280;26964;50.428;19.218;2023-05-20T04:34:01;1028.5;;;11.3;78.7
41230;BME280;26964;50.428;19.218;2023-05-20T04:35:02;1028.4;;;11.3;78.7
41230;BME280;26964;50.428;19.218;2023-05-20T04:36:02;1028.4;;;11.3;78.8
41230;BME280;26964;50.428;19.218;2023-05-20T04:37:01;1028.5;;;11.3;78.8
41230;BME280;26964;50.428;19.218;2023-05-20T04:38:02;1028.5;;;11.3;78.8
41230;BME280;26964;50.428;19.218;2023-05-20T04:39:02;1028.5;;;11.3;78.8
41230;BME280;26964;50.428;19.218;2023-05-20T04:40:01;1028.5;;;11.3;78.8
41230;BME280;26964;50.428;19.218;2023-05-20T04:41:02;1028.5;;;11.3;78.8
41230;BME280;26964;50.428;19.218;2023-05-20T04:42:01;1028.5;;;11.3;78.8
41230;BME280;26964;50.428;19.218;2023-05-20T04:43:01;1028.5;;;11.3;78.8
41230;BME280;26964;50.428;19.218;2023-05-20T04:44:02;1028.5;;;11.3;78.8
41230;BME280;26964;50.428;19.218;2023-05-20T04:45:02;1028.5;;;11.4;78.8
41230;BME280;26964;50.428;19.218;2023-05-20T04:46:02;1028.5;;;11.4;78.8
41230;BME280;26964;50.428;19.218;2023-05-20T04:47:02;1028.4;;;11.4;78.8
41230;BME280;26964;50.428;19.218;2023-05-20T04:48:01;1028.5;;;11.4;78.8
41230;BME280;26964;50.428;19.218;2023-05-20T04:49:02;1028.4;;;11.4;78.8
41230;BME280;26964;50.428;19.218;2023-05-20T04:50:02;1028.5;;;11.4;78.8
41230;BME280;26964;50.428;19.218;2023-05-20T04:51:01;1028.5;;;11.4;78.8
41230;BME280;26964;50.428;19.218;2023-05-20T04:52:02;1028.6;;;11.4;78.8
41230;BME280;26964;50.428;19.218;2023-05-20T04:53:02;1028.5;;;11.4;78.8
41230;BME280;26964;50.428;19.218;2023-05-20T04:54:01;1028.5;;;11.4;78.8
41230;BME280;26964;50.428;19.218;2023-05-20T04:55:01;1028.6;;;11.4;78.9
41230;BME280;26964;50.428;19.218;2023-05-20T04:56:01;1028.6;;;11.4;78.9
41230;BME280;26964;50.428;19.218;2023-05-20T04:57:02;1028.5;;;11.4;78.9
41230;BME280;26964;50.428;19.218;2023-05-20T04:58:02;1028.6;;;11.5;78.9
41230;BME280;26964;50.428;19.218;2023-05-20T04:59:02;1028.6;;;11.5;78.9
41230;BME280;26964;50.428;19.218;2023-05-20T05:00:02;1028.5;;;11.5;78.9
41230;BME280;26964;50.428;19.218;2023-05-20T05:01:01;1028.6;;;11.5;78.9
41230;BME280;26964;50.428;19.218;2023-05-20T05:02:02;1028.6;;;11.5;78.9
41230;BME280;26964;50.428;19.218;2023-05-20T05:03:02;1028.7;;;11.5;78.9
41230;BME280;26964;50.428;19.218;2023-05-20T05:04:02;1028.6;;;11.5;78.9
41230;BME280;26964;50.428;19.218;2023-05-20T05:05:01;1028.6;;;11.5;78.9
41230;BME280;26964;50.428;19.218;2023-05-20T05:06:02;1028.5;;;11.5;78.9
41230;BME280;26964;50.428;19.218;2023-05-20T05:07:01;1028.6;;;11.5;79.0
41230;BME280;26964;50.428;19.218;2023-05-20T05:08:01;1028.6;;;11.5;78.9
41230;BME280;26964;50.428;19.218;2023-05-20T05:09:01;1028.6;;;11.6;78.9
41230;BME280;26964;50.428;19.218;2023-05-20T05:10:01;1028.6;;;11.6;78.9
41230;BME280;26964;50.428;19.218;2023-05-20T05:11:05;1028.7;;;11.6;79.0
41230;BME280;26964;50.428;19.218;2023-05-20T05:12:02;1028.6;;;11.6;78.9
41230;BME280;26964;50.428;19.218;2023-05-20T05:13:01;1028.6;;;11.6;78.9
41230;BME280;26964;50.428;19.218;2023-05-20T05:14:01;1028.6;;;11.6;79.0
41230;BME280;26964;50.428;19.218;2023-05-20T05:15:02;1028.6;;;11.6;79.0
41230;BME280;26964;50.428;19.218;2023-05-20T05:16:02;1028.6;;;11.6;79.0
41230;BME280;26964;50.428;19.218;2023-05-20T05:17:02;1028.7;;;11.6;79.0
41230;BME280;26964;50.428;19.218;2023-05-20T05:18:02;1028.7;;;11.6;79.0
41230;BME280;26964;50.428;19.218;2023-05-20T05:19:01;1028.6;;;11.6;79.0
41230;BME280;26964;50.428;19.218;2023-05-20T05:20:01;1028.6;;;11.6;79.0
41230;BME280;26964;50.428;19.218;2023-05-20T05:21:02;1028.6;;;11.7;79.0
41230;BME280;26964;50.428;19.218;2023-05-20T05:22:02;1028.6;;;11.7;79.0
41230;BME280;26964;50.428;19.218;2023-05-20T05:23:01;1028.6;;;11.7;78.9
41230;BME280;26964;50.428;19.218;2023-05-20T05:24:01;1028.6;;;11.7;79.0
41230;BME280;26964;50.428;19.218;2023-05-20T05:25:01;1028.7;;;11.7;79.0
41230;BME280;26964;50.428;19.218;2023-05-20T05:26:01;1028.6;;;11.7;79.0
41230;BME280;26964;50.428;19.218;2023-05-20T05:27:01;1028.6;;;11.7;79.0
41230;BME280;26964;50.428;19.218;2023-05-20T05:28:01;1028.6;;;11.7;79.0
41230;BME280;26964;50.428;19.218;2023-05-20T05:29:02;1028.7;;;11.7;79.0
41230;BME280;26964;50.428;19.218;2023-05-20T05:30:02;1028.6;;;11.8;79.0